Terminal Aerodrome Forecast
Issued by NWS

Current Version | Previous Version | Text Only | Print | Product List | Glossary On
Versions: 1 2 3 4 5 6 7 8 9 10 11 12 13
069
FTUS41 KBTV 300536
TAFRUT
TAF
KRUT 300536Z 3006/0106 35004KT P6SM SCT090
     FM300800 VRB03KT P6SM SCT090
     FM301800 36005KT P6SM SKC
     FM010300 13009KT P6SM BKN100
      AMD LTD TO CLD VIS AND WIND=

USA.gov is the U.S. government's official web portal to all federal, state and local government web resources and services.